sensor_id;sensor_type;location;lat;lon;timestamp;temperature;humidity
9125;DHT22;4597;48.730;9.114;2023-04-24T00:01:21;12.30;99.90
9125;DHT22;4597;48.730;9.114;2023-04-24T00:03:47;12.40;99.90
9125;DHT22;4597;48.730;9.114;2023-04-24T00:06:12;12.40;99.90
9125;DHT22;4597;48.730;9.114;2023-04-24T00:08:38;12.40;99.90
9125;DHT22;4597;48.730;9.114;2023-04-24T00:11:03;12.40;99.90
9125;DHT22;4597;48.730;9.114;2023-04-24T00:13:29;12.30;99.90
9125;DHT22;4597;48.730;9.114;2023-04-24T00:15:55;12.40;99.90
9125;DHT22;4597;48.730;9.114;2023-04-24T00:18:21;12.40;99.90
9125;DHT22;4597;48.730;9.114;2023-04-24T00:20:47;12.40;99.90
9125;DHT22;4597;48.730;9.114;2023-04-24T00:23:13;12.30;99.90
9125;DHT22;4597;48.730;9.114;2023-04-24T00:25:39;12.40;99.90
9125;DHT22;4597;48.730;9.114;2023-04-24T00:28:05;12.40;99.90
9125;DHT22;4597;48.730;9.114;2023-04-24T00:30:31;12.40;99.90
9125;DHT22;4597;48.730;9.114;2023-04-24T00:32:57;12.40;99.90
9125;DHT22;4597;48.730;9.114;2023-04-24T00:35:22;12.40;99.90
9125;DHT22;4597;48.730;9.114;2023-04-24T00:37:48;12.40;99.90
9125;DHT22;4597;48.730;9.114;2023-04-24T00:40:14;12.50;99.90
9125;DHT22;4597;48.730;9.114;2023-04-24T00:42:40;12.50;99.90
9125;DHT22;4597;48.730;9.114;2023-04-24T00:45:06;12.50;99.90
9125;DHT22;4597;48.730;9.114;2023-04-24T00:47:33;12.50;99.90
9125;DHT22;4597;48.730;9.114;2023-04-24T00:50:03;12.50;99.90
9125;DHT22;4597;48.730;9.114;2023-04-24T00:52:29;12.50;99.90
9125;DHT22;4597;48.730;9.114;2023-04-24T00:54:57;12.60;99.90
9125;DHT22;4597;48.730;9.114;2023-04-24T00:57:22;12.70;99.90
9125;DHT22;4597;48.730;9.114;2023-04-24T00:59:49;12.70;99.90
9125;DHT22;4597;48.730;9.114;2023-04-24T01:02:15;12.80;99.90
9125;DHT22;4597;48.730;9.114;2023-04-24T01:04:41;12.80;99.90
9125;DHT22;4597;48.730;9.114;2023-04-24T01:07:06;12.80;99.90
9125;DHT22;4597;48.730;9.114;2023-04-24T01:09:39;12.70;99.90
9125;DHT22;4597;48.730;9.114;2023-04-24T01:12:06;12.70;99.90
9125;DHT22;4597;48.730;9.114;2023-04-24T01:14:33;12.70;99.90
9125;DHT22;4597;48.730;9.114;2023-04-24T01:16:58;12.60;99.90
9125;DHT22;4597;48.730;9.114;2023-04-24T01:19:24;12.60;99.90
9125;DHT22;4597;48.730;9.114;2023-04-24T01:21:53;12.50;99.90
9125;DHT22;4597;48.730;9.114;2023-04-24T01:24:19;12.50;99.90
9125;DHT22;4597;48.730;9.114;2023-04-24T01:26:45;12.40;99.90
9125;DHT22;4597;48.730;9.114;2023-04-24T01:29:12;12.40;99.90
9125;DHT22;4597;48.730;9.114;2023-04-24T01:31:39;12.30;99.90
9125;DHT22;4597;48.730;9.114;2023-04-24T01:34:05;12.40;99.90
9125;DHT22;4597;48.730;9.114;2023-04-24T01:36:32;12.40;99.90
9125;DHT22;4597;48.730;9.114;2023-04-24T01:38:58;12.40;99.90
9125;DHT22;4597;48.730;9.114;2023-04-24T01:41:24;12.30;99.90
9125;DHT22;4597;48.730;9.114;2023-04-24T01:43:50;12.20;99.90
9125;DHT22;4597;48.730;9.114;2023-04-24T01:46:16;12.20;99.90
9125;DHT22;4597;48.730;9.114;2023-04-24T01:48:42;12.20;99.90
9125;DHT22;4597;48.730;9.114;2023-04-24T01:51:07;12.20;99.90
9125;DHT22;4597;48.730;9.114;2023-04-24T01:53:33;12.20;99.90
9125;DHT22;4597;48.730;9.114;2023-04-24T01:55:59;12.10;99.90
9125;DHT22;4597;48.730;9.114;2023-04-24T01:58:24;12.10;99.90
9125;DHT22;4597;48.730;9.114;2023-04-24T02:00:51;12.20;99.90
9125;DHT22;4597;48.730;9.114;2023-04-24T02:03:16;12.30;99.90
9125;DHT22;4597;48.730;9.114;2023-04-24T02:05:44;12.30;99.90
9125;DHT22;4597;48.730;9.114;2023-04-24T02:08:10;12.40;99.90
9125;DHT22;4597;48.730;9.114;2023-04-24T02:10:35;12.30;99.90
9125;DHT22;4597;48.730;9.114;2023-04-24T02:13:01;12.40;99.90
9125;DHT22;4597;48.730;9.114;2023-04-24T02:15:27;12.40;99.90
9125;DHT22;4597;48.730;9.114;2023-04-24T02:17:53;12.40;99.90
9125;DHT22;4597;48.730;9.114;2023-04-24T02:20:18;12.40;99.90
9125;DHT22;4597;48.730;9.114;2023-04-24T02:22:44;12.50;99.90
9125;DHT22;4597;48.730;9.114;2023-04-24T02:25:09;12.40;99.90
9125;DHT22;4597;48.730;9.114;2023-04-24T02:27:35;12.40;99.90
9125;DHT22;4597;48.730;9.114;2023-04-24T02:30:00;12.30;99.90
9125;DHT22;4597;48.730;9.114;2023-04-24T02:32:26;12.30;99.90
9125;DHT22;4597;48.730;9.114;2023-04-24T02:34:51;12.40;99.90
9125;DHT22;4597;48.730;9.114;2023-04-24T02:37:17;12.40;99.90
9125;DHT22;4597;48.730;9.114;2023-04-24T02:39:42;12.40;99.90
9125;DHT22;4597;48.730;9.114;2023-04-24T02:42:08;12.40;99.90
9125;DHT22;4597;48.730;9.114;2023-04-24T02:44:33;12.30;99.90
9125;DHT22;4597;48.730;9.114;2023-04-24T02:46:59;12.20;99.90
9125;DHT22;4597;48.730;9.114;2023-04-24T02:49:24;12.20;99.90
9125;DHT22;4597;48.730;9.114;2023-04-24T02:51:51;12.10;99.90
9125;DHT22;4597;48.730;9.114;2023-04-24T02:54:16;12.00;99.90
9125;DHT22;4597;48.730;9.114;2023-04-24T02:56:42;11.90;99.90
9125;DHT22;4597;48.730;9.114;2023-04-24T02:59:07;11.80;99.90
9125;DHT22;4597;48.730;9.114;2023-04-24T03:01:33;11.70;99.90
9125;DHT22;4597;48.730;9.114;2023-04-24T03:03:58;11.70;99.90
9125;DHT22;4597;48.730;9.114;2023-04-24T03:06:24;11.70;99.90
9125;DHT22;4597;48.730;9.114;2023-04-24T03:08:50;11.60;99.90
9125;DHT22;4597;48.730;9.114;2023-04-24T03:11:15;11.60;99.90
9125;DHT22;4597;48.730;9.114;2023-04-24T03:13:41;11.50;99.90
9125;DHT22;4597;48.730;9.114;2023-04-24T03:16:06;11.60;99.90
9125;DHT22;4597;48.730;9.114;2023-04-24T03:18:31;11.60;99.90
9125;DHT22;4597;48.730;9.114;2023-04-24T03:20:57;11.70;99.90
9125;DHT22;4597;48.730;9.114;2023-04-24T03:23:23;11.70;99.90
9125;DHT22;4597;48.730;9.114;2023-04-24T03:25:48;11.70;99.90
9125;DHT22;4597;48.730;9.114;2023-04-24T03:28:14;11.70;99.90
9125;DHT22;4597;48.730;9.114;2023-04-24T03:30:40;11.70;99.90
9125;DHT22;4597;48.730;9.114;2023-04-24T03:33:05;11.80;99.90
9125;DHT22;4597;48.730;9.114;2023-04-24T03:35:31;11.70;99.90
9125;DHT22;4597;48.730;9.114;2023-04-24T03:37:56;11.70;99.90
9125;DHT22;4597;48.730;9.114;2023-04-24T03:40:22;11.70;99.90
9125;DHT22;4597;48.730;9.114;2023-04-24T03:42:47;11.70;99.90
9125;DHT22;4597;48.730;9.114;2023-04-24T03:45:13;11.70;99.90
9125;DHT22;4597;48.730;9.114;2023-04-24T03:47:38;11.60;99.90
9125;DHT22;4597;48.730;9.114;2023-04-24T03:50:04;11.70;99.90
9125;DHT22;4597;48.730;9.114;2023-04-24T03:52:30;11.70;99.90
9125;DHT22;4597;48.730;9.114;2023-04-24T03:54:55;11.60;99.90
9125;DHT22;4597;48.730;9.114;2023-04-24T03:57:21;11.60;99.90
9125;DHT22;4597;48.730;9.114;2023-04-24T03:59:47;11.40;99.90
9125;DHT22;4597;48.730;9.114;2023-04-24T04:02:12;11.30;99.90
9125;DHT22;4597;48.730;9.114;2023-04-24T04:04:38;11.20;99.90
9125;DHT22;4597;48.730;9.114;2023-04-24T04:07:03;10.90;99.90
9125;DHT22;4597;48.730;9.114;2023-04-24T04:09:30;10.60;99.90
9125;DHT22;4597;48.730;9.114;2023-04-24T04:11:56;10.50;99.90
9125;DHT22;4597;48.730;9.114;2023-04-24T04:14:22;10.40;99.90
9125;DHT22;4597;48.730;9.114;2023-04-24T04:16:48;10.30;99.90
9125;DHT22;4597;48.730;9.114;2023-04-24T04:19:14;10.30;99.90
9125;DHT22;4597;48.730;9.114;2023-04-24T04:21:39;10.30;99.90
9125;DHT22;4597;48.730;9.114;2023-04-24T04:24:05;10.20;99.90
9125;DHT22;4597;48.730;9.114;2023-04-24T04:26:32;10.20;99.90
9125;DHT22;4597;48.730;9.114;2023-04-24T04:28:59;10.20;99.90
9125;DHT22;4597;48.730;9.114;2023-04-24T04:31:26;10.20;99.90
9125;DHT22;4597;48.730;9.114;2023-04-24T04:33:51;10.10;99.90
9125;DHT22;4597;48.730;9.114;2023-04-24T04:36:17;10.10;99.90
9125;DHT22;4597;48.730;9.114;2023-04-24T04:38:42;10.00;99.90
9125;DHT22;4597;48.730;9.114;2023-04-24T04:41:10;10.00;99.90
9125;DHT22;4597;48.730;9.114;2023-04-24T04:43:36;10.00;99.90
9125;DHT22;4597;48.730;9.114;2023-04-24T04:46:01;10.10;99.90
9125;DHT22;4597;48.730;9.114;2023-04-24T04:48:28;10.10;99.90
9125;DHT22;4597;48.730;9.114;2023-04-24T04:50:54;10.10;99.90
9125;DHT22;4597;48.730;9.114;2023-04-24T04:53:20;10.10;99.90
9125;DHT22;4597;48.730;9.114;2023-04-24T04:55:45;10.00;99.90
9125;DHT22;4597;48.730;9.114;2023-04-24T04:58:12;9.90;99.90
9125;DHT22;4597;48.730;9.114;2023-04-24T05:00:37;9.80;99.90
9125;DHT22;4597;48.730;9.114;2023-04-24T05:03:03;9.80;99.90
9125;DHT22;4597;48.730;9.114;2023-04-24T05:05:29;9.80;99.90
9125;DHT22;4597;48.730;9.114;2023-04-24T05:07:54;9.80;99.90
9125;DHT22;4597;48.730;9.114;2023-04-24T05:10:20;9.90;99.90
9125;DHT22;4597;48.730;9.114;2023-04-24T05:12:45;9.90;99.90
9125;DHT22;4597;48.730;9.114;2023-04-24T05:15:11;9.90;99.90
9125;DHT22;4597;48.730;9.114;2023-04-24T05:17:36;9.90;99.90
9125;DHT22;4597;48.730;9.114;2023-04-24T05:20:02;9.90;99.90
9125;DHT22;4597;48.730;9.114;2023-04-24T05:22:31;9.80;99.90
9125;DHT22;4597;48.730;9.114;2023-04-24T05:24:56;9.80;99.90
9125;DHT22;4597;48.730;9.114;2023-04-24T05:27:22;9.70;99.90
9125;DHT22;4597;48.730;9.114;2023-04-24T05:29:48;9.70;99.90
9125;DHT22;4597;48.730;9.114;2023-04-24T05:32:13;9.80;99.90
9125;DHT22;4597;48.730;9.114;2023-04-24T05:34:39;9.90;99.90
9125;DHT22;4597;48.730;9.114;2023-04-24T05:37:04;10.10;99.90
9125;DHT22;4597;48.730;9.114;2023-04-24T05:39:33;10.10;99.90
9125;DHT22;4597;48.730;9.114;2023-04-24T05:42:00;10.10;99.90
9125;DHT22;4597;48.730;9.114;2023-04-24T05:44:26;10.10;99.90
9125;DHT22;4597;48.730;9.114;2023-04-24T05:46:52;10.10;99.90
9125;DHT22;4597;48.730;9.114;2023-04-24T05:49:17;10.20;99.90
9125;DHT22;4597;48.730;9.114;2023-04-24T05:51:43;10.30;99.90
9125;DHT22;4597;48.730;9.114;2023-04-24T05:54:08;10.30;99.90
9125;DHT22;4597;48.730;9.114;2023-04-24T05:56:34;10.40;99.90
9125;DHT22;4597;48.730;9.114;2023-04-24T05:58:59;10.40;99.90
9125;DHT22;4597;48.730;9.114;2023-04-24T06:01:25;10.40;99.90
9125;DHT22;4597;48.730;9.114;2023-04-24T06:03:50;10.50;99.90
9125;DHT22;4597;48.730;9.114;2023-04-24T06:06:16;10.60;99.90
9125;DHT22;4597;48.730;9.114;2023-04-24T06:08:41;10.60;99.90
9125;DHT22;4597;48.730;9.114;2023-04-24T06:11:09;10.70;99.90
9125;DHT22;4597;48.730;9.114;2023-04-24T06:13:35;10.80;99.90
9125;DHT22;4597;48.730;9.114;2023-04-24T06:16:00;11.00;99.90
9125;DHT22;4597;48.730;9.114;2023-04-24T06:18:26;11.10;99.90
9125;DHT22;4597;48.730;9.114;2023-04-24T06:20:51;11.20;99.90
9125;DHT22;4597;48.730;9.114;2023-04-24T06:23:17;11.30;99.90
9125;DHT22;4597;48.730;9.114;2023-04-24T06:25:42;11.50;99.90
9125;DHT22;4597;48.730;9.114;2023-04-24T06:28:08;11.50;99.90
9125;DHT22;4597;48.730;9.114;2023-04-24T06:30:33;11.50;99.90
9125;DHT22;4597;48.730;9.114;2023-04-24T06:32:59;11.40;99.90
9125;DHT22;4597;48.730;9.114;2023-04-24T06:35:24;11.40;99.90
9125;DHT22;4597;48.730;9.114;2023-04-24T06:37:51;11.30;99.90
9125;DHT22;4597;48.730;9.114;2023-04-24T06:40:16;11.20;99.90
9125;DHT22;4597;48.730;9.114;2023-04-24T06:42:44;11.20;99.90
9125;DHT22;4597;48.730;9.114;2023-04-24T06:45:09;11.20;99.90
9125;DHT22;4597;48.730;9.114;2023-04-24T06:47:35;11.20;99.90
9125;DHT22;4597;48.730;9.114;2023-04-24T06:50:01;11.20;99.90
9125;DHT22;4597;48.730;9.114;2023-04-24T06:52:26;11.20;99.90
9125;DHT22;4597;48.730;9.114;2023-04-24T06:54:52;11.10;99.90
9125;DHT22;4597;48.730;9.114;2023-04-24T06:57:18;11.10;99.90
9125;DHT22;4597;48.730;9.114;2023-04-24T06:59:43;11.10;99.90
9125;DHT22;4597;48.730;9.114;2023-04-24T07:02:09;11.10;99.90
9125;DHT22;4597;48.730;9.114;2023-04-24T07:04:34;11.10;99.90
9125;DHT22;4597;48.730;9.114;2023-04-24T07:07:00;11.20;99.90
9125;DHT22;4597;48.730;9.114;2023-04-24T07:09:26;11.10;99.90
9125;DHT22;4597;48.730;9.114;2023-04-24T07:11:52;11.10;99.90
9125;DHT22;4597;48.730;9.114;2023-04-24T07:14:18;11.10;99.90
9125;DHT22;4597;48.730;9.114;2023-04-24T07:16:44;11.10;99.90
9125;DHT22;4597;48.730;9.114;2023-04-24T07:19:10;11.10;99.90
9125;DHT22;4597;48.730;9.114;2023-04-24T07:21:36;11.10;99.90
9125;DHT22;4597;48.730;9.114;2023-04-24T07:24:01;11.10;99.90
9125;DHT22;4597;48.730;9.114;2023-04-24T07:26:29;11.00;99.90
9125;DHT22;4597;48.730;9.114;2023-04-24T07:28:54;11.10;99.90
9125;DHT22;4597;48.730;9.114;2023-04-24T07:31:20;11.10;99.90
9125;DHT22;4597;48.730;9.114;2023-04-24T07:33:46;11.00;99.90
9125;DHT22;4597;48.730;9.114;2023-04-24T07:36:11;10.90;99.90
9125;DHT22;4597;48.730;9.114;2023-04-24T07:38:47;11.00;99.90
9125;DHT22;4597;48.730;9.114;2023-04-24T07:41:14;11.10;99.90
9125;DHT22;4597;48.730;9.114;2023-04-24T07:43:40;11.10;99.90
9125;DHT22;4597;48.730;9.114;2023-04-24T07:46:06;11.20;99.90
9125;DHT22;4597;48.730;9.114;2023-04-24T07:48:32;11.20;99.90
9125;DHT22;4597;48.730;9.114;2023-04-24T07:50:58;11.00;99.90
9125;DHT22;4597;48.730;9.114;2023-04-24T07:53:23;10.90;99.90
9125;DHT22;4597;48.730;9.114;2023-04-24T07:55:49;10.80;99.90
9125;DHT22;4597;48.730;9.114;2023-04-24T07:58:14;10.80;99.90
9125;DHT22;4597;48.730;9.114;2023-04-24T08:00:40;10.70;99.90
9125;DHT22;4597;48.730;9.114;2023-04-24T08:03:06;10.70;99.90
9125;DHT22;4597;48.730;9.114;2023-04-24T08:05:31;10.70;99.90
9125;DHT22;4597;48.730;9.114;2023-04-24T08:07:57;10.80;99.90
9125;DHT22;4597;48.730;9.114;2023-04-24T08:10:23;10.80;99.90
9125;DHT22;4597;48.730;9.114;2023-04-24T08:12:48;10.90;99.90
9125;DHT22;4597;48.730;9.114;2023-04-24T08:15:14;10.80;99.90
9125;DHT22;4597;48.730;9.114;2023-04-24T08:17:40;10.90;99.90
9125;DHT22;4597;48.730;9.114;2023-04-24T08:20:06;10.90;99.90
9125;DHT22;4597;48.730;9.114;2023-04-24T08:22:35;10.90;99.90
9125;DHT22;4597;48.730;9.114;2023-04-24T08:25:01;10.90;99.90
9125;DHT22;4597;48.730;9.114;2023-04-24T08:27:27;11.10;99.90
9125;DHT22;4597;48.730;9.114;2023-04-24T08:29:53;11.40;99.90
9125;DHT22;4597;48.730;9.114;2023-04-24T08:32:19;11.50;99.90
9125;DHT22;4597;48.730;9.114;2023-04-24T08:34:45;11.80;99.90
9125;DHT22;4597;48.730;9.114;2023-04-24T08:37:10;11.80;99.90
9125;DHT22;4597;48.730;9.114;2023-04-24T08:39:36;11.70;99.90
9125;DHT22;4597;48.730;9.114;2023-04-24T08:42:02;11.60;99.90
9125;DHT22;4597;48.730;9.114;2023-04-24T08:44:33;11.70;99.90
9125;DHT22;4597;48.730;9.114;2023-04-24T08:46:59;11.60;99.90
9125;DHT22;4597;48.730;9.114;2023-04-24T08:49:27;11.50;99.90
9125;DHT22;4597;48.730;9.114;2023-04-24T08:51:53;11.50;99.90
9125;DHT22;4597;48.730;9.114;2023-04-24T08:54:18;11.60;99.90
9125;DHT22;4597;48.730;9.114;2023-04-24T08:56:44;11.70;99.90
9125;DHT22;4597;48.730;9.114;2023-04-24T08:59:10;11.80;99.90
9125;DHT22;4597;48.730;9.114;2023-04-24T09:01:37;11.70;99.90
9125;DHT22;4597;48.730;9.114;2023-04-24T09:04:07;11.50;99.90
9125;DHT22;4597;48.730;9.114;2023-04-24T09:06:35;11.40;99.90
9125;DHT22;4597;48.730;9.114;2023-04-24T09:09:01;11.30;99.90
9125;DHT22;4597;48.730;9.114;2023-04-24T09:11:27;11.50;99.90
9125;DHT22;4597;48.730;9.114;2023-04-24T09:13:54;11.40;99.90
9125;DHT22;4597;48.730;9.114;2023-04-24T09:16:20;11.50;99.90
9125;DHT22;4597;48.730;9.114;2023-04-24T09:18:48;11.80;99.90
9125;DHT22;4597;48.730;9.114;2023-04-24T09:21:14;12.00;99.90
9125;DHT22;4597;48.730;9.114;2023-04-24T09:23:40;12.20;99.90
9125;DHT22;4597;48.730;9.114;2023-04-24T09:26:06;12.20;99.90
9125;DHT22;4597;48.730;9.114;2023-04-24T09:28:38;12.10;99.90
9125;DHT22;4597;48.730;9.114;2023-04-24T09:31:15;12.20;99.90
9125;DHT22;4597;48.730;9.114;2023-04-24T09:33:59;12.40;99.90
9125;DHT22;4597;48.730;9.114;2023-04-24T09:36:51;12.20;99.90
9125;DHT22;4597;48.730;9.114;2023-04-24T09:39:18;12.00;99.90
9125;DHT22;4597;48.730;9.114;2023-04-24T09:41:53;11.80;99.90
9125;DHT22;4597;48.730;9.114;2023-04-24T09:44:21;11.60;99.90
9125;DHT22;4597;48.730;9.114;2023-04-24T09:46:54;11.50;99.90
9125;DHT22;4597;48.730;9.114;2023-04-24T09:49:23;11.60;99.90
9125;DHT22;4597;48.730;9.114;2023-04-24T09:51:49;11.70;99.90
9125;DHT22;4597;48.730;9.114;2023-04-24T09:54:18;12.00;99.90
9125;DHT22;4597;48.730;9.114;2023-04-24T09:56:49;12.30;99.10
9125;DHT22;4597;48.730;9.114;2023-04-24T09:59:18;12.50;97.40
9125;DHT22;4597;48.730;9.114;2023-04-24T10:01:44;12.50;96.10
9125;DHT22;4597;48.730;9.114;2023-04-24T10:04:21;12.50;96.10
9125;DHT22;4597;48.730;9.114;2023-04-24T10:06:48;12.40;97.00
9125;DHT22;4597;48.730;9.114;2023-04-24T10:09:15;12.30;96.10
9125;DHT22;4597;48.730;9.114;2023-04-24T10:11:43;12.10;95.10
9125;DHT22;4597;48.730;9.114;2023-04-24T10:14:17;12.10;95.50
9125;DHT22;4597;48.730;9.114;2023-04-24T10:16:44;12.00;95.80
9125;DHT22;4597;48.730;9.114;2023-04-24T10:19:10;11.90;96.20
9125;DHT22;4597;48.730;9.114;2023-04-24T10:21:36;11.80;97.10
9125;DHT22;4597;48.730;9.114;2023-04-24T10:24:08;11.60;98.50
9125;DHT22;4597;48.730;9.114;2023-04-24T10:26:35;11.50;99.30
9125;DHT22;4597;48.730;9.114;2023-04-24T10:29:01;11.50;99.90
9125;DHT22;4597;48.730;9.114;2023-04-24T10:31:27;11.50;99.90
9125;DHT22;4597;48.730;9.114;2023-04-24T10:33:56;11.60;99.90
9125;DHT22;4597;48.730;9.114;2023-04-24T10:36:24;11.50;99.90
9125;DHT22;4597;48.730;9.114;2023-04-24T10:38:53;11.50;99.90
9125;DHT22;4597;48.730;9.114;2023-04-24T10:41:20;11.60;99.90
9125;DHT22;4597;48.730;9.114;2023-04-24T10:43:49;11.90;99.90
9125;DHT22;4597;48.730;9.114;2023-04-24T10:46:30;12.10;99.90
9125;DHT22;4597;48.730;9.114;2023-04-24T10:48:56;12.30;99.90
9125;DHT22;4597;48.730;9.114;2023-04-24T10:51:24;12.40;99.90
9125;DHT22;4597;48.730;9.114;2023-04-24T10:53:50;12.60;99.90
9125;DHT22;4597;48.730;9.114;2023-04-24T10:56:17;12.70;99.90
9125;DHT22;4597;48.730;9.114;2023-04-24T10:58:44;12.80;99.90
9125;DHT22;4597;48.730;9.114;2023-04-24T11:01:31;12.80;99.90
9125;DHT22;4597;48.730;9.114;2023-04-24T11:04:00;12.80;99.70
9125;DHT22;4597;48.730;9.114;2023-04-24T11:06:36;12.90;98.90
9125;DHT22;4597;48.730;9.114;2023-04-24T11:11:29;13.00;95.00
9125;DHT22;4597;48.730;9.114;2023-04-24T11:21:39;13.50;95.60
9125;DHT22;4597;48.730;9.114;2023-04-24T11:24:27;13.60;93.20
9125;DHT22;4597;48.730;9.114;2023-04-24T11:26:55;13.30;93.30
9125;DHT22;4597;48.730;9.114;2023-04-24T11:29:22;13.20;93.60
9125;DHT22;4597;48.730;9.114;2023-04-24T11:31:48;13.20;92.40
9125;DHT22;4597;48.730;9.114;2023-04-24T11:34:17;13.10;94.10
9125;DHT22;4597;48.730;9.114;2023-04-24T11:36:44;13.10;94.50
9125;DHT22;4597;48.730;9.114;2023-04-24T11:39:11;13.20;94.80
9125;DHT22;4597;48.730;9.114;2023-04-24T11:41:37;13.10;92.20
9125;DHT22;4597;48.730;9.114;2023-04-24T11:44:06;12.90;92.10
9125;DHT22;4597;48.730;9.114;2023-04-24T11:46:32;12.70;92.30
9125;DHT22;4597;48.730;9.114;2023-04-24T11:48:58;12.50;92.50
9125;DHT22;4597;48.730;9.114;2023-04-24T11:51:26;12.50;93.30
9125;DHT22;4597;48.730;9.114;2023-04-24T11:53:52;12.70;93.90
9125;DHT22;4597;48.730;9.114;2023-04-24T11:56:18;12.90;93.70
9125;DHT22;4597;48.730;9.114;2023-04-24T11:58:45;12.70;94.40
9125;DHT22;4597;48.730;9.114;2023-04-24T12:01:12;12.80;95.40
9125;DHT22;4597;48.730;9.114;2023-04-24T12:03:37;13.00;94.90
9125;DHT22;4597;48.730;9.114;2023-04-24T12:06:10;13.20;95.30
9125;DHT22;4597;48.730;9.114;2023-04-24T12:08:37;13.20;94.70
9125;DHT22;4597;48.730;9.114;2023-04-24T12:11:04;12.90;94.30
9125;DHT22;4597;48.730;9.114;2023-04-24T12:13:30;12.70;95.70
9125;DHT22;4597;48.730;9.114;2023-04-24T12:16:01;12.60;96.10
9125;DHT22;4597;48.730;9.114;2023-04-24T12:18:27;12.50;96.20
9125;DHT22;4597;48.730;9.114;2023-04-24T12:20:52;12.20;98.60
9125;DHT22;4597;48.730;9.114;2023-04-24T12:23:34;12.10;98.80
9125;DHT22;4597;48.730;9.114;2023-04-24T12:26:03;12.10;99.90
9125;DHT22;4597;48.730;9.114;2023-04-24T12:28:35;12.20;99.90
9125;DHT22;4597;48.730;9.114;2023-04-24T12:31:01;12.50;99.90
9125;DHT22;4597;48.730;9.114;2023-04-24T12:33:27;12.60;99.90
9125;DHT22;4597;48.730;9.114;2023-04-24T12:35:53;12.70;99.90
9125;DHT22;4597;48.730;9.114;2023-04-24T12:38:23;12.90;99.90
9125;DHT22;4597;48.730;9.114;2023-04-24T12:41:05;12.90;98.00
9125;DHT22;4597;48.730;9.114;2023-04-24T12:43:30;13.00;99.20
9125;DHT22;4597;48.730;9.114;2023-04-24T12:45:56;13.00;99.70
9125;DHT22;4597;48.730;9.114;2023-04-24T12:48:22;12.90;98.90
9125;DHT22;4597;48.730;9.114;2023-04-24T12:50:48;12.60;99.90
9125;DHT22;4597;48.730;9.114;2023-04-24T12:53:14;12.60;99.90
9125;DHT22;4597;48.730;9.114;2023-04-24T12:55:40;12.50;99.90
9125;DHT22;4597;48.730;9.114;2023-04-24T12:58:05;12.50;99.90
9125;DHT22;4597;48.730;9.114;2023-04-24T13:00:31;12.60;99.90
9125;DHT22;4597;48.730;9.114;2023-04-24T13:02:57;12.60;99.90
9125;DHT22;4597;48.730;9.114;2023-04-24T13:05:23;13.00;99.90
9125;DHT22;4597;48.730;9.114;2023-04-24T13:07:48;13.50;99.90
9125;DHT22;4597;48.730;9.114;2023-04-24T13:10:14;13.90;99.90
9125;DHT22;4597;48.730;9.114;2023-04-24T13:12:39;14.10;96.90
9125;DHT22;4597;48.730;9.114;2023-04-24T13:15:06;14.20;96.60
9125;DHT22;4597;48.730;9.114;2023-04-24T13:17:32;14.00;95.60
9125;DHT22;4597;48.730;9.114;2023-04-24T13:19:58;13.60;95.60
9125;DHT22;4597;48.730;9.114;2023-04-24T13:22:24;13.30;95.40
9125;DHT22;4597;48.730;9.114;2023-04-24T13:24:50;13.40;96.30
9125;DHT22;4597;48.730;9.114;2023-04-24T13:27:16;13.50;95.30
9125;DHT22;4597;48.730;9.114;2023-04-24T13:29:41;13.70;95.30
9125;DHT22;4597;48.730;9.114;2023-04-24T13:32:08;13.70;95.00
9125;DHT22;4597;48.730;9.114;2023-04-24T13:34:34;14.00;93.60
9125;DHT22;4597;48.730;9.114;2023-04-24T13:37:00;13.90;93.30
9125;DHT22;4597;48.730;9.114;2023-04-24T13:39:26;13.80;94.20
9125;DHT22;4597;48.730;9.114;2023-04-24T13:41:52;13.80;94.00
9125;DHT22;4597;48.730;9.114;2023-04-24T13:44:19;13.80;92.60
9125;DHT22;4597;48.730;9.114;2023-04-24T13:46:47;13.60;92.60
9125;DHT22;4597;48.730;9.114;2023-04-24T13:49:13;13.80;91.20
9125;DHT22;4597;48.730;9.114;2023-04-24T13:51:40;14.00;90.40
9125;DHT22;4597;48.730;9.114;2023-04-24T13:54:06;14.40;89.50
9125;DHT22;4597;48.730;9.114;2023-04-24T13:56:31;14.60;85.00
9125;DHT22;4597;48.730;9.114;2023-04-24T13:58:57;14.50;85.30
9125;DHT22;4597;48.730;9.114;2023-04-24T14:01:23;14.20;85.80
9125;DHT22;4597;48.730;9.114;2023-04-24T14:03:52;13.70;85.80
9125;DHT22;4597;48.730;9.114;2023-04-24T14:06:19;13.40;86.00
9125;DHT22;4597;48.730;9.114;2023-04-24T14:08:44;13.40;88.20
9125;DHT22;4597;48.730;9.114;2023-04-24T14:11:10;13.50;88.90
9125;DHT22;4597;48.730;9.114;2023-04-24T14:13:36;14.00;87.80
9125;DHT22;4597;48.730;9.114;2023-04-24T14:16:03;14.40;84.40
9125;DHT22;4597;48.730;9.114;2023-04-24T14:18:29;14.60;85.70
9125;DHT22;4597;48.730;9.114;2023-04-24T14:20:54;14.90;82.20
9125;DHT22;4597;48.730;9.114;2023-04-24T14:23:20;15.20;82.70
9125;DHT22;4597;48.730;9.114;2023-04-24T14:25:45;15.60;77.70
9125;DHT22;4597;48.730;9.114;2023-04-24T14:28:13;16.00;75.30
9125;DHT22;4597;48.730;9.114;2023-04-24T14:30:39;15.90;74.40
9125;DHT22;4597;48.730;9.114;2023-04-24T14:33:06;16.00;75.00
9125;DHT22;4597;48.730;9.114;2023-04-24T14:35:31;16.30;73.50
9125;DHT22;4597;48.730;9.114;2023-04-24T14:37:58;16.90;70.00
9125;DHT22;4597;48.730;9.114;2023-04-24T14:40:24;17.00;64.60
9125;DHT22;4597;48.730;9.114;2023-04-24T14:42:49;16.80;64.00
9125;DHT22;4597;48.730;9.114;2023-04-24T14:45:15;16.20;62.00
9125;DHT22;4597;48.730;9.114;2023-04-24T14:47:41;15.50;62.80
9125;DHT22;4597;48.730;9.114;2023-04-24T14:50:07;15.30;65.60
9125;DHT22;4597;48.730;9.114;2023-04-24T14:52:33;15.60;64.60
9125;DHT22;4597;48.730;9.114;2023-04-24T14:54:59;16.20;63.40
9125;DHT22;4597;48.730;9.114;2023-04-24T14:57:24;17.70;56.80
9125;DHT22;4597;48.730;9.114;2023-04-24T14:59:50;18.20;53.80
9125;DHT22;4597;48.730;9.114;2023-04-24T15:02:16;17.40;54.00
9125;DHT22;4597;48.730;9.114;2023-04-24T15:04:41;16.40;57.40
9125;DHT22;4597;48.730;9.114;2023-04-24T15:07:07;15.50;59.90
9125;DHT22;4597;48.730;9.114;2023-04-24T15:09:32;14.70;63.20
9125;DHT22;4597;48.730;9.114;2023-04-24T15:11:58;14.30;68.00
9125;DHT22;4597;48.730;9.114;2023-04-24T15:14:23;14.20;71.00
9125;DHT22;4597;48.730;9.114;2023-04-24T15:16:49;14.00;72.10
9125;DHT22;4597;48.730;9.114;2023-04-24T15:19:15;13.80;74.70
9125;DHT22;4597;48.730;9.114;2023-04-24T15:21:40;14.20;74.40
9125;DHT22;4597;48.730;9.114;2023-04-24T15:24:08;15.90;68.70
9125;DHT22;4597;48.730;9.114;2023-04-24T15:26:33;18.00;55.00
9125;DHT22;4597;48.730;9.114;2023-04-24T15:28:59;20.20;49.00
9125;DHT22;4597;48.730;9.114;2023-04-24T15:31:25;21.30;40.70
9125;DHT22;4597;48.730;9.114;2023-04-24T15:33:50;22.10;38.00
9125;DHT22;4597;48.730;9.114;2023-04-24T15:36:17;23.30;34.90
9125;DHT22;4597;48.730;9.114;2023-04-24T15:38:43;24.60;32.20
9125;DHT22;4597;48.730;9.114;2023-04-24T15:41:09;24.10;30.40
9125;DHT22;4597;48.730;9.114;2023-04-24T15:43:34;23.70;31.50
9125;DHT22;4597;48.730;9.114;2023-04-24T15:46:01;23.70;32.40
9125;DHT22;4597;48.730;9.114;2023-04-24T15:48:29;24.50;30.60
9125;DHT22;4597;48.730;9.114;2023-04-24T15:50:55;25.50;29.20
9125;DHT22;4597;48.730;9.114;2023-04-24T15:53:21;25.90;27.10
9125;DHT22;4597;48.730;9.114;2023-04-24T15:55:47;26.00;26.90
9125;DHT22;4597;48.730;9.114;2023-04-24T15:58:13;25.50;26.40
9125;DHT22;4597;48.730;9.114;2023-04-24T16:00:39;25.90;26.20
9125;DHT22;4597;48.730;9.114;2023-04-24T16:03:04;25.50;25.90
9125;DHT22;4597;48.730;9.114;2023-04-24T16:05:30;25.90;26.00
9125;DHT22;4597;48.730;9.114;2023-04-24T16:07:56;25.40;25.70